In Rescue
 
Open Full Screen Window  High Contrast Mode
Wind Gusting 00 knots
06
October 03, 2023 9:51 PM CDT
Present Weather: Light Rain
Weather Information
Wind Direction
  190 °
Wind Speed
  06 kt (7 mph)
Wind Gust
  00 kt (0 mph)
Altimeter
29.77 in
Visibility
10 SM
Temperature
19° C
66° F
Dewpoint
17° C
63° F
Humidity
88%
1hr Rain Fall
00.01 in.
24hr Rain Fall
00.01 in.
Sky Condition
Overcast @ 10,000 ft
Broken @ 6,000 ft
Scattered @ 4,500 ft
VFR

METAR KMZH 040251Z AUTO 19006KT 10SM -RA SCT045 BKN060 OVC100 19/17 A2977 RMK AO2 P0001

FAA Disclaimer: The data displayed is for advisory purposes only and is not to be used for flight planning or operations.